sensor_id;sensor_type;location;lat;lon;timestamp;temperature;humidity
47022;DHT22;32779;52.264;6.154;2023-01-08T00:01:24;9.80;99.90
47022;DHT22;32779;52.264;6.154;2023-01-08T00:03:50;9.80;99.90
47022;DHT22;32779;52.264;6.154;2023-01-08T00:06:17;9.90;99.90
47022;DHT22;32779;52.264;6.154;2023-01-08T00:08:43;9.90;99.90
47022;DHT22;32779;52.264;6.154;2023-01-08T00:11:09;9.90;99.90
47022;DHT22;32779;52.264;6.154;2023-01-08T00:13:35;9.80;99.90
47022;DHT22;32779;52.264;6.154;2023-01-08T00:16:05;9.90;99.90
47022;DHT22;32779;52.264;6.154;2023-01-08T00:19:11;9.90;99.90
47022;DHT22;32779;52.264;6.154;2023-01-08T00:21:38;9.90;99.90
47022;DHT22;32779;52.264;6.154;2023-01-08T00:24:04;9.90;99.90
47022;DHT22;32779;52.264;6.154;2023-01-08T00:26:30;9.80;99.90
47022;DHT22;32779;52.264;6.154;2023-01-08T00:28:56;9.80;99.90
47022;DHT22;32779;52.264;6.154;2023-01-08T00:31:22;9.80;99.90
47022;DHT22;32779;52.264;6.154;2023-01-08T00:33:47;9.80;99.90
47022;DHT22;32779;52.264;6.154;2023-01-08T00:36:16;9.80;99.90
47022;DHT22;32779;52.264;6.154;2023-01-08T00:38:44;9.80;99.90
47022;DHT22;32779;52.264;6.154;2023-01-08T00:41:11;9.80;99.90
47022;DHT22;32779;52.264;6.154;2023-01-08T00:43:37;9.80;99.90
47022;DHT22;32779;52.264;6.154;2023-01-08T00:46:03;9.80;99.90
47022;DHT22;32779;52.264;6.154;2023-01-08T00:48:29;9.80;99.90
47022;DHT22;32779;52.264;6.154;2023-01-08T00:50:55;9.80;99.90
47022;DHT22;32779;52.264;6.154;2023-01-08T00:53:22;9.80;99.90
47022;DHT22;32779;52.264;6.154;2023-01-08T00:55:48;9.80;99.90
47022;DHT22;32779;52.264;6.154;2023-01-08T00:58:14;9.90;99.90
47022;DHT22;32779;52.264;6.154;2023-01-08T01:00:40;9.90;99.90
47022;DHT22;32779;52.264;6.154;2023-01-08T01:03:05;9.90;99.90
47022;DHT22;32779;52.264;6.154;2023-01-08T01:05:31;9.90;99.90
47022;DHT22;32779;52.264;6.154;2023-01-08T01:07:57;9.90;99.90
47022;DHT22;32779;52.264;6.154;2023-01-08T01:10:23;9.90;99.90
47022;DHT22;32779;52.264;6.154;2023-01-08T01:12:49;9.90;99.90
47022;DHT22;32779;52.264;6.154;2023-01-08T01:15:16;9.90;99.90
47022;DHT22;32779;52.264;6.154;2023-01-08T01:17:43;9.90;99.90
47022;DHT22;32779;52.264;6.154;2023-01-08T01:20:13;9.90;99.90
47022;DHT22;32779;52.264;6.154;2023-01-08T01:22:39;9.90;99.90
47022;DHT22;32779;52.264;6.154;2023-01-08T01:25:05;9.90;99.90
47022;DHT22;32779;52.264;6.154;2023-01-08T01:27:30;9.90;99.90
47022;DHT22;32779;52.264;6.154;2023-01-08T01:29:56;9.80;99.90
47022;DHT22;32779;52.264;6.154;2023-01-08T01:32:22;9.80;99.90
47022;DHT22;32779;52.264;6.154;2023-01-08T01:34:47;9.80;99.90
47022;DHT22;32779;52.264;6.154;2023-01-08T01:37:14;9.80;99.90
47022;DHT22;32779;52.264;6.154;2023-01-08T01:39:41;9.80;99.90
47022;DHT22;32779;52.264;6.154;2023-01-08T01:42:18;9.80;99.90
47022;DHT22;32779;52.264;6.154;2023-01-08T01:45:25;9.80;99.90
47022;DHT22;32779;52.264;6.154;2023-01-08T01:47:56;9.80;99.90
47022;DHT22;32779;52.264;6.154;2023-01-08T01:50:39;9.80;99.90
47022;DHT22;32779;52.264;6.154;2023-01-08T01:53:10;9.80;99.90
47022;DHT22;32779;52.264;6.154;2023-01-08T01:55:38;9.80;99.90
47022;DHT22;32779;52.264;6.154;2023-01-08T02:00:34;9.80;99.90
47022;DHT22;32779;52.264;6.154;2023-01-08T02:03:00;9.80;99.90
47022;DHT22;32779;52.264;6.154;2023-01-08T02:05:37;9.70;99.90
47022;DHT22;32779;52.264;6.154;2023-01-08T02:08:10;9.70;99.90
47022;DHT22;32779;52.264;6.154;2023-01-08T02:10:55;9.70;99.90
47022;DHT22;32779;52.264;6.154;2023-01-08T02:13:29;9.70;99.90
47022;DHT22;32779;52.264;6.154;2023-01-08T02:22:09;9.70;99.90
47022;DHT22;32779;52.264;6.154;2023-01-08T02:24:50;9.70;99.90
47022;DHT22;32779;52.264;6.154;2023-01-08T02:27:18;9.80;99.90
47022;DHT22;32779;52.264;6.154;2023-01-08T02:29:44;9.70;99.90
47022;DHT22;32779;52.264;6.154;2023-01-08T02:32:10;9.70;99.90
47022;DHT22;32779;52.264;6.154;2023-01-08T02:34:36;9.60;99.90
47022;DHT22;32779;52.264;6.154;2023-01-08T02:37:02;9.60;99.90
47022;DHT22;32779;52.264;6.154;2023-01-08T02:42:56;9.60;99.90
47022;DHT22;32779;52.264;6.154;2023-01-08T02:48:08;9.50;99.90
47022;DHT22;32779;52.264;6.154;2023-01-08T02:53:12;9.50;99.90
47022;DHT22;32779;52.264;6.154;2023-01-08T02:55:41;9.40;99.90
47022;DHT22;32779;52.264;6.154;2023-01-08T02:58:08;9.40;99.90
47022;DHT22;32779;52.264;6.154;2023-01-08T03:00:35;9.40;99.90
47022;DHT22;32779;52.264;6.154;2023-01-08T03:03:11;9.40;99.90
47022;DHT22;32779;52.264;6.154;2023-01-08T03:05:40;9.30;99.90
47022;DHT22;32779;52.264;6.154;2023-01-08T03:08:08;9.30;99.90
47022;DHT22;32779;52.264;6.154;2023-01-08T03:10:36;9.40;99.90
47022;DHT22;32779;52.264;6.154;2023-01-08T03:13:12;9.40;99.90
47022;DHT22;32779;52.264;6.154;2023-01-08T03:15:48;9.40;99.90
47022;DHT22;32779;52.264;6.154;2023-01-08T03:18:18;9.30;99.90
47022;DHT22;32779;52.264;6.154;2023-01-08T03:20:46;9.30;99.90
47022;DHT22;32779;52.264;6.154;2023-01-08T03:23:14;9.30;99.90
47022;DHT22;32779;52.264;6.154;2023-01-08T03:25:43;9.20;99.90
47022;DHT22;32779;52.264;6.154;2023-01-08T03:28:17;9.20;99.90
47022;DHT22;32779;52.264;6.154;2023-01-08T03:30:46;9.20;99.90
47022;DHT22;32779;52.264;6.154;2023-01-08T03:33:14;9.20;99.90
47022;DHT22;32779;52.264;6.154;2023-01-08T03:35:42;9.20;99.90
47022;DHT22;32779;52.264;6.154;2023-01-08T03:38:20;9.30;99.90
47022;DHT22;32779;52.264;6.154;2023-01-08T03:40:51;9.30;99.90
47022;DHT22;32779;52.264;6.154;2023-01-08T03:43:18;9.30;99.90
47022;DHT22;32779;52.264;6.154;2023-01-08T03:45:51;9.30;99.90
47022;DHT22;32779;52.264;6.154;2023-01-08T03:48:18;9.30;99.90
47022;DHT22;32779;52.264;6.154;2023-01-08T03:50:45;9.30;99.90
47022;DHT22;32779;52.264;6.154;2023-01-08T03:53:11;9.30;99.90
47022;DHT22;32779;52.264;6.154;2023-01-08T03:55:37;9.20;99.90
47022;DHT22;32779;52.264;6.154;2023-01-08T03:58:02;9.20;99.90
47022;DHT22;32779;52.264;6.154;2023-01-08T04:00:28;9.20;99.90
47022;DHT22;32779;52.264;6.154;2023-01-08T04:02:54;9.20;99.90
47022;DHT22;32779;52.264;6.154;2023-01-08T04:05:19;9.10;99.90
47022;DHT22;32779;52.264;6.154;2023-01-08T04:07:53;9.10;99.90
47022;DHT22;32779;52.264;6.154;2023-01-08T04:11:00;9.00;99.90
47022;DHT22;32779;52.264;6.154;2023-01-08T04:13:25;9.00;99.90
47022;DHT22;32779;52.264;6.154;2023-01-08T04:15:51;8.90;99.90
47022;DHT22;32779;52.264;6.154;2023-01-08T04:18:17;8.90;99.90
47022;DHT22;32779;52.264;6.154;2023-01-08T04:20:46;8.90;99.90
47022;DHT22;32779;52.264;6.154;2023-01-08T04:23:13;8.80;99.90
47022;DHT22;32779;52.264;6.154;2023-01-08T04:25:38;8.80;99.90
47022;DHT22;32779;52.264;6.154;2023-01-08T04:28:04;8.80;99.90
47022;DHT22;32779;52.264;6.154;2023-01-08T04:30:30;8.70;99.90
47022;DHT22;32779;52.264;6.154;2023-01-08T04:32:56;8.70;99.90
47022;DHT22;32779;52.264;6.154;2023-01-08T04:35:21;8.70;99.90
47022;DHT22;32779;52.264;6.154;2023-01-08T04:37:47;8.60;99.90
47022;DHT22;32779;52.264;6.154;2023-01-08T04:40:13;8.60;99.90
47022;DHT22;32779;52.264;6.154;2023-01-08T04:42:38;8.50;99.90
47022;DHT22;32779;52.264;6.154;2023-01-08T04:45:10;8.40;99.90
47022;DHT22;32779;52.264;6.154;2023-01-08T04:47:36;8.40;99.90
47022;DHT22;32779;52.264;6.154;2023-01-08T04:50:01;8.30;99.90
47022;DHT22;32779;52.264;6.154;2023-01-08T04:52:27;8.30;99.90
47022;DHT22;32779;52.264;6.154;2023-01-08T04:54:53;8.30;99.90
47022;DHT22;32779;52.264;6.154;2023-01-08T04:57:19;8.30;99.90
47022;DHT22;32779;52.264;6.154;2023-01-08T04:59:44;8.30;99.90
47022;DHT22;32779;52.264;6.154;2023-01-08T05:02:10;8.30;99.90
47022;DHT22;32779;52.264;6.154;2023-01-08T05:04:35;8.30;99.90
47022;DHT22;32779;52.264;6.154;2023-01-08T05:07:02;8.20;99.90
47022;DHT22;32779;52.264;6.154;2023-01-08T05:09:28;8.20;99.90
47022;DHT22;32779;52.264;6.154;2023-01-08T05:11:53;8.20;99.90
47022;DHT22;32779;52.264;6.154;2023-01-08T05:14:19;8.20;99.90
47022;DHT22;32779;52.264;6.154;2023-01-08T05:16:45;8.30;99.90
47022;DHT22;32779;52.264;6.154;2023-01-08T05:19:10;8.20;99.90
47022;DHT22;32779;52.264;6.154;2023-01-08T05:21:36;8.20;99.90
47022;DHT22;32779;52.264;6.154;2023-01-08T05:24:02;8.20;99.90
47022;DHT22;32779;52.264;6.154;2023-01-08T05:26:27;8.20;99.90
47022;DHT22;32779;52.264;6.154;2023-01-08T05:28:53;8.20;99.90
47022;DHT22;32779;52.264;6.154;2023-01-08T05:31:18;8.20;99.90
47022;DHT22;32779;52.264;6.154;2023-01-08T05:33:44;8.20;99.90
47022;DHT22;32779;52.264;6.154;2023-01-08T05:36:11;8.10;99.90
47022;DHT22;32779;52.264;6.154;2023-01-08T05:38:37;8.20;99.90
47022;DHT22;32779;52.264;6.154;2023-01-08T05:41:04;8.20;99.90
47022;DHT22;32779;52.264;6.154;2023-01-08T05:43:30;8.20;99.90
47022;DHT22;32779;52.264;6.154;2023-01-08T05:46:00;8.20;99.90
47022;DHT22;32779;52.264;6.154;2023-01-08T05:48:27;8.20;99.90
47022;DHT22;32779;52.264;6.154;2023-01-08T05:50:53;8.20;99.90
47022;DHT22;32779;52.264;6.154;2023-01-08T05:53:18;8.20;99.90
47022;DHT22;32779;52.264;6.154;2023-01-08T05:55:44;8.20;99.90
47022;DHT22;32779;52.264;6.154;2023-01-08T05:58:10;8.20;99.90
47022;DHT22;32779;52.264;6.154;2023-01-08T06:00:36;8.20;99.90
47022;DHT22;32779;52.264;6.154;2023-01-08T06:03:03;8.30;99.90
47022;DHT22;32779;52.264;6.154;2023-01-08T06:05:31;8.30;99.90
47022;DHT22;32779;52.264;6.154;2023-01-08T06:08:00;8.20;99.90
47022;DHT22;32779;52.264;6.154;2023-01-08T06:10:26;8.20;99.90
47022;DHT22;32779;52.264;6.154;2023-01-08T06:12:52;8.30;99.90
47022;DHT22;32779;52.264;6.154;2023-01-08T06:15:18;8.30;99.90
47022;DHT22;32779;52.264;6.154;2023-01-08T06:17:44;8.20;99.90
47022;DHT22;32779;52.264;6.154;2023-01-08T06:20:10;8.20;99.90
47022;DHT22;32779;52.264;6.154;2023-01-08T06:22:35;8.30;99.90
47022;DHT22;32779;52.264;6.154;2023-01-08T06:25:05;8.20;99.90
47022;DHT22;32779;52.264;6.154;2023-01-08T06:27:30;8.30;99.90
47022;DHT22;32779;52.264;6.154;2023-01-08T06:29:56;8.20;99.90
47022;DHT22;32779;52.264;6.154;2023-01-08T06:32:22;8.30;99.90
47022;DHT22;32779;52.264;6.154;2023-01-08T06:34:47;8.20;99.90
47022;DHT22;32779;52.264;6.154;2023-01-08T06:37:13;8.30;99.90
47022;DHT22;32779;52.264;6.154;2023-01-08T06:39:39;8.20;99.90
47022;DHT22;32779;52.264;6.154;2023-01-08T06:42:04;8.30;99.90
47022;DHT22;32779;52.264;6.154;2023-01-08T06:44:30;8.20;99.90
47022;DHT22;32779;52.264;6.154;2023-01-08T06:46:55;8.30;99.90
47022;DHT22;32779;52.264;6.154;2023-01-08T06:49:21;8.20;99.90
47022;DHT22;32779;52.264;6.154;2023-01-08T06:51:47;8.20;99.90
47022;DHT22;32779;52.264;6.154;2023-01-08T06:54:12;8.20;99.90
47022;DHT22;32779;52.264;6.154;2023-01-08T06:56:38;8.20;99.90
47022;DHT22;32779;52.264;6.154;2023-01-08T06:59:05;8.10;99.90
47022;DHT22;32779;52.264;6.154;2023-01-08T07:01:31;8.00;99.90
47022;DHT22;32779;52.264;6.154;2023-01-08T07:03:57;8.00;99.90
47022;DHT22;32779;52.264;6.154;2023-01-08T07:06:22;7.90;99.90
47022;DHT22;32779;52.264;6.154;2023-01-08T07:08:49;7.80;99.90
47022;DHT22;32779;52.264;6.154;2023-01-08T07:11:15;7.80;99.90
47022;DHT22;32779;52.264;6.154;2023-01-08T07:13:41;7.70;99.90
47022;DHT22;32779;52.264;6.154;2023-01-08T07:16:07;7.70;99.90
47022;DHT22;32779;52.264;6.154;2023-01-08T07:18:34;7.70;99.90
47022;DHT22;32779;52.264;6.154;2023-01-08T07:21:04;7.60;99.90
47022;DHT22;32779;52.264;6.154;2023-01-08T07:23:31;7.60;99.90
47022;DHT22;32779;52.264;6.154;2023-01-08T07:26:03;7.50;99.90
47022;DHT22;32779;52.264;6.154;2023-01-08T07:28:30;7.40;99.90
47022;DHT22;32779;52.264;6.154;2023-01-08T07:30:55;7.40;99.90
47022;DHT22;32779;52.264;6.154;2023-01-08T07:33:21;7.40;99.90
47022;DHT22;32779;52.264;6.154;2023-01-08T07:35:54;7.40;99.90
47022;DHT22;32779;52.264;6.154;2023-01-08T07:38:20;7.40;99.90
47022;DHT22;32779;52.264;6.154;2023-01-08T07:40:46;7.30;99.90
47022;DHT22;32779;52.264;6.154;2023-01-08T07:43:11;7.30;99.90
47022;DHT22;32779;52.264;6.154;2023-01-08T07:45:37;7.20;99.90
47022;DHT22;32779;52.264;6.154;2023-01-08T07:48:03;7.20;99.90
47022;DHT22;32779;52.264;6.154;2023-01-08T07:50:29;7.20;99.90
47022;DHT22;32779;52.264;6.154;2023-01-08T07:53:01;7.20;99.90
47022;DHT22;32779;52.264;6.154;2023-01-08T07:55:28;7.20;99.90
47022;DHT22;32779;52.264;6.154;2023-01-08T07:57:54;7.20;99.90
47022;DHT22;32779;52.264;6.154;2023-01-08T08:00:19;7.10;99.90
47022;DHT22;32779;52.264;6.154;2023-01-08T08:02:45;7.10;99.90
47022;DHT22;32779;52.264;6.154;2023-01-08T08:05:10;7.10;99.90
47022;DHT22;32779;52.264;6.154;2023-01-08T08:07:36;7.10;99.90
47022;DHT22;32779;52.264;6.154;2023-01-08T08:10:03;7.10;99.90
47022;DHT22;32779;52.264;6.154;2023-01-08T08:12:29;7.10;99.90
47022;DHT22;32779;52.264;6.154;2023-01-08T08:14:55;7.10;99.90
47022;DHT22;32779;52.264;6.154;2023-01-08T08:17:21;7.10;99.90
47022;DHT22;32779;52.264;6.154;2023-01-08T08:19:49;7.10;99.90
47022;DHT22;32779;52.264;6.154;2023-01-08T08:22:15;7.10;99.90
47022;DHT22;32779;52.264;6.154;2023-01-08T08:24:41;7.10;99.90
47022;DHT22;32779;52.264;6.154;2023-01-08T08:27:06;7.10;99.90
47022;DHT22;32779;52.264;6.154;2023-01-08T08:29:32;7.10;99.90
47022;DHT22;32779;52.264;6.154;2023-01-08T08:31:57;7.10;99.90
47022;DHT22;32779;52.264;6.154;2023-01-08T08:34:23;7.10;99.90
47022;DHT22;32779;52.264;6.154;2023-01-08T08:36:49;7.00;99.90
47022;DHT22;32779;52.264;6.154;2023-01-08T08:39:15;7.10;99.90
47022;DHT22;32779;52.264;6.154;2023-01-08T08:41:40;7.10;99.90
47022;DHT22;32779;52.264;6.154;2023-01-08T08:44:09;7.10;99.90
47022;DHT22;32779;52.264;6.154;2023-01-08T08:46:34;7.10;99.90
47022;DHT22;32779;52.264;6.154;2023-01-08T08:49:00;7.10;99.90
47022;DHT22;32779;52.264;6.154;2023-01-08T08:51:26;7.10;99.90
47022;DHT22;32779;52.264;6.154;2023-01-08T08:53:51;7.20;99.90
47022;DHT22;32779;52.264;6.154;2023-01-08T08:56:17;7.20;99.90
47022;DHT22;32779;52.264;6.154;2023-01-08T08:58:43;7.30;99.90
47022;DHT22;32779;52.264;6.154;2023-01-08T09:01:10;7.30;99.90
47022;DHT22;32779;52.264;6.154;2023-01-08T09:03:36;7.30;99.90
47022;DHT22;32779;52.264;6.154;2023-01-08T09:06:02;7.40;99.90
47022;DHT22;32779;52.264;6.154;2023-01-08T09:08:27;7.30;99.90
47022;DHT22;32779;52.264;6.154;2023-01-08T09:10:53;7.40;99.90
47022;DHT22;32779;52.264;6.154;2023-01-08T09:13:18;7.40;99.90
47022;DHT22;32779;52.264;6.154;2023-01-08T09:15:44;7.40;99.90
47022;DHT22;32779;52.264;6.154;2023-01-08T09:18:10;7.40;99.90
47022;DHT22;32779;52.264;6.154;2023-01-08T09:20:35;7.40;99.90
47022;DHT22;32779;52.264;6.154;2023-01-08T09:23:01;7.40;99.90
47022;DHT22;32779;52.264;6.154;2023-01-08T09:25:28;7.40;99.90
47022;DHT22;32779;52.264;6.154;2023-01-08T09:27:59;7.50;99.90
47022;DHT22;32779;52.264;6.154;2023-01-08T09:30:24;7.50;99.90
47022;DHT22;32779;52.264;6.154;2023-01-08T09:32:50;7.50;99.90
47022;DHT22;32779;52.264;6.154;2023-01-08T09:35:15;7.50;99.90
47022;DHT22;32779;52.264;6.154;2023-01-08T09:37:41;7.50;99.90
47022;DHT22;32779;52.264;6.154;2023-01-08T09:40:09;7.50;99.90
47022;DHT22;32779;52.264;6.154;2023-01-08T09:42:38;7.50;99.90
47022;DHT22;32779;52.264;6.154;2023-01-08T09:45:05;7.50;99.90
47022;DHT22;32779;52.264;6.154;2023-01-08T09:47:38;7.50;99.90
47022;DHT22;32779;52.264;6.154;2023-01-08T09:50:09;7.60;99.90
47022;DHT22;32779;52.264;6.154;2023-01-08T09:52:36;7.60;99.90
47022;DHT22;32779;52.264;6.154;2023-01-08T09:55:02;7.70;99.90
47022;DHT22;32779;52.264;6.154;2023-01-08T09:57:34;7.70;99.90
47022;DHT22;32779;52.264;6.154;2023-01-08T09:59:59;7.70;99.90
47022;DHT22;32779;52.264;6.154;2023-01-08T10:02:25;7.80;99.90
47022;DHT22;32779;52.264;6.154;2023-01-08T10:04:57;7.80;99.90
47022;DHT22;32779;52.264;6.154;2023-01-08T10:07:26;7.80;99.90
47022;DHT22;32779;52.264;6.154;2023-01-08T10:09:52;7.90;99.90
47022;DHT22;32779;52.264;6.154;2023-01-08T10:12:30;8.00;99.90
47022;DHT22;32779;52.264;6.154;2023-01-08T10:15:05;8.00;99.90
47022;DHT22;32779;52.264;6.154;2023-01-08T10:17:40;8.10;99.90
47022;DHT22;32779;52.264;6.154;2023-01-08T10:20:14;8.10;99.90
47022;DHT22;32779;52.264;6.154;2023-01-08T10:22:41;8.10;99.90
47022;DHT22;32779;52.264;6.154;2023-01-08T10:25:08;8.20;99.90
47022;DHT22;32779;52.264;6.154;2023-01-08T10:30:39;8.20;99.90
47022;DHT22;32779;52.264;6.154;2023-01-08T10:33:10;8.20;99.90
47022;DHT22;32779;52.264;6.154;2023-01-08T10:35:42;8.20;99.90
47022;DHT22;32779;52.264;6.154;2023-01-08T10:38:25;8.20;99.90
47022;DHT22;32779;52.264;6.154;2023-01-08T10:40:51;8.20;99.90
47022;DHT22;32779;52.264;6.154;2023-01-08T10:43:27;8.20;99.90
47022;DHT22;32779;52.264;6.154;2023-01-08T10:45:59;8.30;99.90
47022;DHT22;32779;52.264;6.154;2023-01-08T10:48:34;8.30;99.90
47022;DHT22;32779;52.264;6.154;2023-01-08T10:53:38;8.50;99.90
47022;DHT22;32779;52.264;6.154;2023-01-08T10:56:05;8.60;99.90
47022;DHT22;32779;52.264;6.154;2023-01-08T10:58:41;8.60;99.90
47022;DHT22;32779;52.264;6.154;2023-01-08T11:01:15;8.70;99.90
47022;DHT22;32779;52.264;6.154;2023-01-08T11:03:41;8.80;99.90
47022;DHT22;32779;52.264;6.154;2023-01-08T11:06:11;8.90;99.90
47022;DHT22;32779;52.264;6.154;2023-01-08T11:08:38;8.90;99.90
47022;DHT22;32779;52.264;6.154;2023-01-08T11:11:04;9.00;99.90
47022;DHT22;32779;52.264;6.154;2023-01-08T11:13:30;9.00;99.90
47022;DHT22;32779;52.264;6.154;2023-01-08T11:16:04;9.00;99.90
47022;DHT22;32779;52.264;6.154;2023-01-08T11:18:47;9.00;99.90
47022;DHT22;32779;52.264;6.154;2023-01-08T11:21:27;9.10;99.90
47022;DHT22;32779;52.264;6.154;2023-01-08T11:24:14;9.10;99.90
47022;DHT22;32779;52.264;6.154;2023-01-08T11:26:45;9.20;99.90
47022;DHT22;32779;52.264;6.154;2023-01-08T11:29:42;9.20;99.90
47022;DHT22;32779;52.264;6.154;2023-01-08T11:37:37;9.30;99.90
47022;DHT22;32779;52.264;6.154;2023-01-08T11:40:13;9.20;99.90
47022;DHT22;32779;52.264;6.154;2023-01-08T11:42:55;9.20;99.90
47022;DHT22;32779;52.264;6.154;2023-01-08T11:50:43;9.30;99.90
47022;DHT22;32779;52.264;6.154;2023-01-08T11:56:43;9.30;99.90
47022;DHT22;32779;52.264;6.154;2023-01-08T11:59:35;9.30;99.90
47022;DHT22;32779;52.264;6.154;2023-01-08T12:09:17;9.40;99.90
47022;DHT22;32779;52.264;6.154;2023-01-08T12:11:48;9.40;99.90
47022;DHT22;32779;52.264;6.154;2023-01-08T12:17:52;9.40;99.90
47022;DHT22;32779;52.264;6.154;2023-01-08T12:20:26;9.50;99.90
47022;DHT22;32779;52.264;6.154;2023-01-08T12:28:47;9.40;99.90
47022;DHT22;32779;52.264;6.154;2023-01-08T12:37:20;9.30;99.90
47022;DHT22;32779;52.264;6.154;2023-01-08T12:39:54;9.30;99.90
47022;DHT22;32779;52.264;6.154;2023-01-08T12:42:22;9.30;99.90
47022;DHT22;32779;52.264;6.154;2023-01-08T12:44:54;9.30;99.90
47022;DHT22;32779;52.264;6.154;2023-01-08T12:47:24;9.30;99.90
47022;DHT22;32779;52.264;6.154;2023-01-08T12:50:09;9.30;99.90
47022;DHT22;32779;52.264;6.154;2023-01-08T12:52:57;9.30;99.90
47022;DHT22;32779;52.264;6.154;2023-01-08T12:55:57;9.40;99.90
47022;DHT22;32779;52.264;6.154;2023-01-08T12:58:33;9.40;99.90
47022;DHT22;32779;52.264;6.154;2023-01-08T13:04:01;9.40;99.90
47022;DHT22;32779;52.264;6.154;2023-01-08T13:06:29;9.40;99.90
47022;DHT22;32779;52.264;6.154;2023-01-08T13:08:56;9.40;99.90
47022;DHT22;32779;52.264;6.154;2023-01-08T13:11:28;9.40;99.90
47022;DHT22;32779;52.264;6.154;2023-01-08T13:14:03;9.40;99.90
47022;DHT22;32779;52.264;6.154;2023-01-08T13:16:37;9.40;99.90
47022;DHT22;32779;52.264;6.154;2023-01-08T13:19:04;9.40;99.90
47022;DHT22;32779;52.264;6.154;2023-01-08T13:21:50;9.40;99.90
47022;DHT22;32779;52.264;6.154;2023-01-08T13:26:55;9.50;99.90
47022;DHT22;32779;52.264;6.154;2023-01-08T13:29:36;9.50;99.90
47022;DHT22;32779;52.264;6.154;2023-01-08T13:32:03;9.50;99.90
47022;DHT22;32779;52.264;6.154;2023-01-08T13:34:36;9.50;99.90
47022;DHT22;32779;52.264;6.154;2023-01-08T13:37:03;9.50;99.90
47022;DHT22;32779;52.264;6.154;2023-01-08T13:39:38;9.60;99.90
47022;DHT22;32779;52.264;6.154;2023-01-08T13:44:51;9.60;99.90
47022;DHT22;32779;52.264;6.154;2023-01-08T13:47:30;9.50;99.90
47022;DHT22;32779;52.264;6.154;2023-01-08T13:49:58;9.60;99.90
47022;DHT22;32779;52.264;6.154;2023-01-08T13:52:35;9.60;99.90
47022;DHT22;32779;52.264;6.154;2023-01-08T13:55:09;9.60;99.90
47022;DHT22;32779;52.264;6.154;2023-01-08T13:57:39;9.60;99.90
47022;DHT22;32779;52.264;6.154;2023-01-08T14:00:08;9.60;99.90
47022;DHT22;32779;52.264;6.154;2023-01-08T14:02:42;9.50;99.90
47022;DHT22;32779;52.264;6.154;2023-01-08T14:05:29;9.50;99.90
47022;DHT22;32779;52.264;6.154;2023-01-08T14:07:56;9.50;99.90
47022;DHT22;32779;52.264;6.154;2023-01-08T14:10:23;9.40;99.90
47022;DHT22;32779;52.264;6.154;2023-01-08T14:12:49;9.40;99.90
47022;DHT22;32779;52.264;6.154;2023-01-08T14:15:26;9.40;99.90
47022;DHT22;32779;52.264;6.154;2023-01-08T14:17:54;9.40;99.90
47022;DHT22;32779;52.264;6.154;2023-01-08T14:20:26;9.30;99.90
47022;DHT22;32779;52.264;6.154;2023-01-08T14:23:39;9.30;99.90
47022;DHT22;32779;52.264;6.154;2023-01-08T14:26:11;9.30;99.90
47022;DHT22;32779;52.264;6.154;2023-01-08T14:28:50;9.20;99.90
47022;DHT22;32779;52.264;6.154;2023-01-08T14:31:20;9.20;99.90
47022;DHT22;32779;52.264;6.154;2023-01-08T14:33:47;9.20;99.90
47022;DHT22;32779;52.264;6.154;2023-01-08T14:36:13;9.20;99.90
47022;DHT22;32779;52.264;6.154;2023-01-08T14:38:39;9.10;99.90
47022;DHT22;32779;52.264;6.154;2023-01-08T14:41:08;9.10;99.90
47022;DHT22;32779;52.264;6.154;2023-01-08T14:43:39;9.10;99.90
47022;DHT22;32779;52.264;6.154;2023-01-08T14:46:35;9.10;99.90
47022;DHT22;32779;52.264;6.154;2023-01-08T14:49:00;9.10;99.90
47022;DHT22;32779;52.264;6.154;2023-01-08T14:51:28;9.10;99.90
47022;DHT22;32779;52.264;6.154;2023-01-08T14:54:01;9.10;99.90
47022;DHT22;32779;52.264;6.154;2023-01-08T14:56:32;9.00;99.90
47022;DHT22;32779;52.264;6.154;2023-01-08T14:58:59;9.10;99.90
47022;DHT22;32779;52.264;6.154;2023-01-08T15:01:31;9.00;99.90
47022;DHT22;32779;52.264;6.154;2023-01-08T15:04:24;9.00;99.90
47022;DHT22;32779;52.264;6.154;2023-01-08T15:06:52;9.00;99.90
47022;DHT22;32779;52.264;6.154;2023-01-08T15:11:53;9.00;99.90
47022;DHT22;32779;52.264;6.154;2023-01-08T15:14:22;8.90;99.90
47022;DHT22;32779;52.264;6.154;2023-01-08T15:16:50;8.90;99.90
47022;DHT22;32779;52.264;6.154;2023-01-08T15:19:23;8.90;99.90
47022;DHT22;32779;52.264;6.154;2023-01-08T15:21:58;8.90;99.90
47022;DHT22;32779;52.264;6.154;2023-01-08T15:24:27;8.80;99.90
47022;DHT22;32779;52.264;6.154;2023-01-08T15:26:54;8.80;99.90
47022;DHT22;32779;52.264;6.154;2023-01-08T15:29:30;8.70;99.90
47022;DHT22;32779;52.264;6.154;2023-01-08T15:32:09;8.70;99.90
47022;DHT22;32779;52.264;6.154;2023-01-08T15:34:36;8.60;99.90
47022;DHT22;32779;52.264;6.154;2023-01-08T15:37:02;8.60;99.90
47022;DHT22;32779;52.264;6.154;2023-01-08T15:39:27;8.50;99.90
47022;DHT22;32779;52.264;6.154;2023-01-08T15:44:56;8.50;99.90
47022;DHT22;32779;52.264;6.154;2023-01-08T15:47:22;8.40;99.90
47022;DHT22;32779;52.264;6.154;2023-01-08T15:49:48;8.40;99.90
47022;DHT22;32779;52.264;6.154;2023-01-08T15:52:14;8.40;99.90
47022;DHT22;32779;52.264;6.154;2023-01-08T15:58:45;8.30;99.90
47022;DHT22;32779;52.264;6.154;2023-01-08T16:04:19;8.30;99.90
47022;DHT22;32779;52.264;6.154;2023-01-08T16:06:44;8.20;99.90
47022;DHT22;32779;52.264;6.154;2023-01-08T16:09:10;8.10;99.90
47022;DHT22;32779;52.264;6.154;2023-01-08T16:11:35;8.10;99.90
47022;DHT22;32779;52.264;6.154;2023-01-08T16:14:04;8.10;99.90
47022;DHT22;32779;52.264;6.154;2023-01-08T16:16:29;8.00;99.90
47022;DHT22;32779;52.264;6.154;2023-01-08T16:18:57;8.00;99.90
47022;DHT22;32779;52.264;6.154;2023-01-08T16:21:23;7.90;99.90
47022;DHT22;32779;52.264;6.154;2023-01-08T16:26:57;7.90;99.90
47022;DHT22;32779;52.264;6.154;2023-01-08T16:32:39;7.80;99.90
47022;DHT22;32779;52.264;6.154;2023-01-08T16:35:05;7.70;99.90
47022;DHT22;32779;52.264;6.154;2023-01-08T16:37:31;7.70;99.90
47022;DHT22;32779;52.264;6.154;2023-01-08T16:39:57;7.70;99.90
47022;DHT22;32779;52.264;6.154;2023-01-08T16:42:22;7.60;99.90
47022;DHT22;32779;52.264;6.154;2023-01-08T16:44:48;7.60;99.90
47022;DHT22;32779;52.264;6.154;2023-01-08T16:47:13;7.60;99.90
47022;DHT22;32779;52.264;6.154;2023-01-08T16:49:39;7.50;99.90
47022;DHT22;32779;52.264;6.154;2023-01-08T16:52:04;7.50;99.90
47022;DHT22;32779;52.264;6.154;2023-01-08T16:54:30;7.50;99.90
47022;DHT22;32779;52.264;6.154;2023-01-08T16:56:57;7.40;99.90
47022;DHT22;32779;52.264;6.154;2023-01-08T16:59:23;7.40;99.90
47022;DHT22;32779;52.264;6.154;2023-01-08T17:01:53;7.40;99.90
47022;DHT22;32779;52.264;6.154;2023-01-08T17:04:19;7.30;99.90
47022;DHT22;32779;52.264;6.154;2023-01-08T17:06:45;7.30;99.90
47022;DHT22;32779;52.264;6.154;2023-01-08T17:09:11;7.30;99.90
47022;DHT22;32779;52.264;6.154;2023-01-08T17:11:37;7.20;99.90
47022;DHT22;32779;52.264;6.154;2023-01-08T17:14:02;7.20;99.90
47022;DHT22;32779;52.264;6.154;2023-01-08T17:16:28;7.20;99.90
47022;DHT22;32779;52.264;6.154;2023-01-08T17:18:54;7.10;99.90
47022;DHT22;32779;52.264;6.154;2023-01-08T17:21:21;7.10;99.90
47022;DHT22;32779;52.264;6.154;2023-01-08T17:23:47;7.10;99.90